Time;durP1;ratioP1;P1;durP2;ratioP2;P2;SDS_P1;SDS_P2;PMS_P1;PMS_P2;Temp;Humidity;BMP_temperature;BMP_pressure;BME280_temperature;BME280_humidity;BME280_pressure;Samples;Min_cycle;Max_cycle;Signal;HPM_P1;HPM_P2
2021/05/15 00:01:10;;;;;;;7.60;6.82;;;9.70;99.90;;;;;;5023398;28;20200;-78
2021/05/15 00:03:37;;;;;;;8.30;6.55;;;9.70;99.90;;;;;;5027241;28;20219;-78
2021/05/15 00:06:04;;;;;;;8.05;7.35;;;9.80;99.90;;;;;;5027329;28;20361;-77
2021/05/15 00:08:31;;;;;;;7.80;7.10;;;10.10;99.90;;;;;;5027191;28;20203;-78
2021/05/15 00:10:57;;;;;;;7.28;6.60;;;10.30;99.90;;;;;;5027756;28;20227;-77
2021/05/15 00:13:24;;;;;;;7.35;6.65;;;10.50;99.90;;;;;;5027806;28;20216;-78
2021/05/15 00:15:52;;;;;;;6.78;6.18;;;10.60;99.90;;;;;;5027734;28;20185;-78
2021/05/15 00:18:19;;;;;;;8.15;6.80;;;10.50;99.90;;;;;;5025511;28;20280;-76
2021/05/15 00:20:46;;;;;;;7.70;6.90;;;10.30;99.90;;;;;;5021139;28;20274;-76
2021/05/15 00:23:13;;;;;;;8.15;7.32;;;10.20;99.90;;;;;;5033737;28;20264;-77
2021/05/15 00:25:40;;;;;;;7.80;6.95;;;10.10;99.90;;;;;;5038704;28;20219;-77
2021/05/15 00:28:07;;;;;;;7.10;6.50;;;9.80;99.90;;;;;;5030163;28;20224;-78
2021/05/15 00:30:33;;;;;;;8.63;6.78;;;9.60;99.90;;;;;;5019553;28;20197;-77
2021/05/15 00:33:01;;;;;;;7.15;6.45;;;9.60;99.90;;;;;;5033888;28;20203;-76
2021/05/15 00:35:27;;;;;;;6.90;6.30;;;9.70;99.90;;;;;;5034861;28;20203;-77
2021/05/15 00:37:54;;;;;;;7.43;6.72;;;9.70;99.90;;;;;;5035699;28;20623;-78
2021/05/15 00:40:21;;;;;;;7.05;6.35;;;9.90;99.90;;;;;;5034333;28;20199;-78
2021/05/15 00:42:47;;;;;;;7.03;6.43;;;9.90;99.90;;;;;;5000705;28;20199;-78
2021/05/15 00:45:16;;;;;;;6.53;6.00;;;9.80;99.90;;;;;;5024936;28;20212;-78
2021/05/15 00:47:43;;;;;;;6.63;6.03;;;9.90;99.90;;;;;;5016926;28;20201;-77
2021/05/15 00:50:11;;;;;;;7.72;7.03;;;10.10;99.90;;;;;;5025988;28;20201;-77
2021/05/15 00:52:38;;;;;;;7.40;6.53;;;10.40;99.90;;;;;;5038368;28;20200;-78
2021/05/15 00:55:08;;;;;;;6.75;6.13;;;10.50;99.90;;;;;;5033001;28;20219;-77
2021/05/15 00:57:36;;;;;;;6.03;5.53;;;10.70;99.90;;;;;;5016997;28;20288;-78
2021/05/15 01:00:05;;;;;;;6.75;6.15;;;10.80;99.90;;;;;;5016989;28;20299;-78
2021/05/15 01:02:32;;;;;;;5.93;5.43;;;10.80;99.90;;;;;;5031449;28;20214;-78
2021/05/15 01:04:58;;;;;;;7.63;6.43;;;10.80;99.90;;;;;;5026010;28;20605;-78
2021/05/15 01:07:26;;;;;;;6.38;5.88;;;10.90;99.90;;;;;;5027231;28;20557;-78
2021/05/15 01:09:53;;;;;;;7.30;6.63;;;11.00;99.90;;;;;;5023480;28;20192;-77
2021/05/15 01:12:20;;;;;;;7.32;6.63;;;11.10;99.90;;;;;;5034438;28;20199;-78
2021/05/15 01:14:48;;;;;;;6.47;5.82;;;11.20;99.90;;;;;;5033568;28;20303;-78
2021/05/15 01:17:15;;;;;;;6.68;6.05;;;11.20;99.90;;;;;;5000406;28;20196;-78
2021/05/15 01:19:41;;;;;;;5.80;5.30;;;11.20;99.90;;;;;;5008456;28;20200;-77
2021/05/15 01:22:10;;;;;;;6.30;5.72;;;11.20;99.90;;;;;;5027370;28;20197;-78
2021/05/15 01:24:38;;;;;;;5.90;5.47;;;11.20;99.90;;;;;;5017599;28;20267;-77
2021/05/15 01:27:06;;;;;;;5.57;5.10;;;11.20;99.90;;;;;;5018473;28;20291;-77
2021/05/15 01:29:35;;;;;;;7.15;5.22;;;11.20;99.90;;;;;;5033327;28;20204;-78
2021/05/15 01:32:01;;;;;;;6.10;5.57;;;11.00;99.90;;;;;;5024238;28;20196;-78
2021/05/15 01:34:29;;;;;;;6.13;5.63;;;11.00;99.90;;;;;;5022572;28;20235;-77
2021/05/15 01:36:56;;;;;;;6.72;6.03;;;11.00;99.90;;;;;;5042287;28;20607;-77
2021/05/15 01:39:23;;;;;;;6.20;5.57;;;11.00;99.90;;;;;;5034451;28;20196;-78
2021/05/15 01:41:51;;;;;;;6.50;5.82;;;10.90;99.90;;;;;;5032263;28;20208;-77
2021/05/15 01:44:18;;;;;;;6.32;5.82;;;11.00;99.90;;;;;;5044218;28;20220;-77
2021/05/15 01:46:45;;;;;;;8.25;7.47;;;10.90;99.90;;;;;;5035316;28;20275;-77
2021/05/15 01:49:13;;;;;;;7.28;6.68;;;10.70;99.90;;;;;;5051361;28;20203;-77
2021/05/15 01:51:40;;;;;;;6.22;5.68;;;10.70;99.90;;;;;;5040514;28;20185;-77
2021/05/15 01:54:07;;;;;;;7.57;6.88;;;10.60;99.90;;;;;;5048739;28;20299;-77
2021/05/15 01:56:35;;;;;;;7.32;6.63;;;10.70;99.90;;;;;;5056381;28;20192;-76
2021/05/15 01:59:01;;;;;;;11.38;7.43;;;10.80;99.90;;;;;;5052067;28;20688;-77
2021/05/15 02:01:37;;;;;;;8.65;7.85;;;10.80;99.90;;;;;;5036796;28;20212;-77
2021/05/15 02:04:04;;;;;;;8.02;7.28;;;10.80;99.90;;;;;;5052249;28;20196;-77
2021/05/15 02:06:31;;;;;;;9.00;8.10;;;10.80;99.90;;;;;;5051347;28;20219;-78
2021/05/15 02:08:58;;;;;;;8.65;7.85;;;10.80;99.90;;;;;;5016457;28;20204;-78
2021/05/15 02:11:26;;;;;;;9.70;8.80;;;10.70;99.90;;;;;;5030414;28;20200;-78
2021/05/15 02:13:53;;;;;;;9.15;8.30;;;10.70;99.90;;;;;;5033807;28;20219;-78
2021/05/15 02:16:20;;;;;;;9.55;8.65;;;10.70;99.90;;;;;;5047103;28;20318;-78
2021/05/15 02:18:47;;;;;;;9.05;7.97;;;10.70;99.90;;;;;;5050023;28;20198;-78
2021/05/15 02:21:14;;;;;;;10.13;9.13;;;10.60;99.90;;;;;;5014674;28;20216;-78
2021/05/15 02:23:41;;;;;;;8.98;8.18;;;10.70;99.90;;;;;;5035390;28;20223;-76
2021/05/15 02:26:08;;;;;;;10.13;9.13;;;10.60;99.90;;;;;;5057561;28;20212;-77
2021/05/15 02:28:34;;;;;;;9.95;9.07;;;10.50;99.90;;;;;;5043588;28;20212;-77
2021/05/15 02:31:02;;;;;;;9.57;8.77;;;10.50;99.90;;;;;;5047279;28;20193;-77
2021/05/15 02:33:29;;;;;;;9.43;8.63;;;10.40;99.90;;;;;;5036571;28;20240;-77
2021/05/15 02:35:56;;;;;;;9.90;9.10;;;10.30;99.90;;;;;;5051091;28;20199;-77
2021/05/15 02:38:23;;;;;;;9.95;8.75;;;10.30;99.90;;;;;;5054324;28;20210;-77
2021/05/15 02:40:53;;;;;;;9.70;8.85;;;10.10;99.90;;;;;;5036718;28;20304;-77
2021/05/15 02:43:20;;;;;;;9.07;8.27;;;9.90;99.90;;;;;;5056931;28;20196;-77
2021/05/15 02:45:47;;;;;;;10.38;9.45;;;9.80;99.90;;;;;;5039465;28;20209;-76
2021/05/15 02:48:16;;;;;;;10.45;9.45;;;9.60;99.90;;;;;;5021687;28;20192;-77
2021/05/15 02:50:44;;;;;;;9.77;8.95;;;9.40;99.90;;;;;;5054313;28;20203;-76
2021/05/15 02:53:11;;;;;;;11.15;10.10;;;9.50;99.90;;;;;;5046291;28;20181;-77
2021/05/15 02:55:38;;;;;;;11.10;10.00;;;9.50;99.90;;;;;;5036121;28;20227;-76
2021/05/15 02:58:05;;;;;;;10.88;9.70;;;9.50;99.90;;;;;;5044351;28;20219;-78
2021/05/15 03:00:33;;;;;;;11.27;10.20;;;9.40;99.90;;;;;;5046127;28;20196;-77
2021/05/15 03:02:59;;;;;;;10.10;9.30;;;9.30;99.90;;;;;;5055506;28;20238;-77
2021/05/15 03:05:29;;;;;;;10.88;9.77;;;9.40;99.90;;;;;;5052938;28;20238;-76
2021/05/15 03:07:56;;;;;;;10.45;9.50;;;9.50;99.90;;;;;;5028352;28;20192;-77
2021/05/15 03:10:25;;;;;;;10.32;9.30;;;9.30;99.90;;;;;;5003797;28;20212;-77
2021/05/15 03:12:53;;;;;;;12.07;10.88;;;9.20;99.90;;;;;;5014212;28;20677;-78
2021/05/15 03:15:21;;;;;;;11.90;10.70;;;9.20;99.90;;;;;;5029720;28;20200;-78
2021/05/15 03:17:48;;;;;;;12.52;11.32;;;9.30;99.90;;;;;;5013830;28;20283;-78
2021/05/15 03:20:17;;;;;;;13.18;11.43;;;9.30;99.90;;;;;;5016672;28;20200;-77
2021/05/15 03:22:45;;;;;;;12.73;11.48;;;9.30;99.90;;;;;;5029241;28;20181;-76
2021/05/15 03:25:12;;;;;;;12.48;11.38;;;9.30;99.90;;;;;;5055199;28;20228;-76
2021/05/15 03:27:39;;;;;;;13.13;11.80;;;9.40;99.90;;;;;;5035577;28;20244;-76
2021/05/15 03:30:08;;;;;;;14.15;12.85;;;9.20;99.90;;;;;;5044052;28;20211;-76
2021/05/15 03:32:35;;;;;;;13.63;12.18;;;9.00;99.90;;;;;;5045794;28;20192;-76
2021/05/15 03:35:03;;;;;;;13.80;12.52;;;9.00;99.90;;;;;;5051697;28;20204;-76
2021/05/15 03:37:29;;;;;;;14.50;13.23;;;8.90;99.90;;;;;;5049544;28;20298;-77
2021/05/15 03:39:57;;;;;;;13.05;11.75;;;8.80;99.90;;;;;;5027845;28;20207;-77
2021/05/15 03:42:25;;;;;;;13.90;12.55;;;8.70;99.90;;;;;;5031362;28;20242;-77
2021/05/15 03:44:52;;;;;;;15.75;14.23;;;8.50;99.90;;;;;;5037002;28;20220;-77
2021/05/15 03:47:19;;;;;;;14.68;13.43;;;8.50;99.90;;;;;;5026207;28;20207;-77
2021/05/15 03:49:45;;;;;;;14.55;13.07;;;8.30;99.90;;;;;;5018326;28;20195;-77
2021/05/15 03:52:12;;;;;;;14.38;12.98;;;8.40;99.90;;;;;;5032083;28;20204;-77
2021/05/15 03:54:38;;;;;;;15.40;14.00;;;8.30;99.90;;;;;;5019640;28;20209;-77
2021/05/15 03:57:07;;;;;;;14.40;12.93;;;8.40;99.90;;;;;;5000335;28;20215;-77
2021/05/15 03:59:33;;;;;;;14.73;13.23;;;8.30;99.90;;;;;;5034341;28;20212;-77
2021/05/15 04:02:00;;;;;;;13.35;11.95;;;8.40;99.90;;;;;;5006235;28;20205;-77
2021/05/15 04:04:26;;;;;;;14.38;12.95;;;8.60;99.90;;;;;;5014760;28;20226;-77
2021/05/15 04:06:53;;;;;;;11.80;10.68;;;8.90;99.90;;;;;;5034461;28;20232;-77
2021/05/15 04:09:19;;;;;;;14.30;12.90;;;9.10;99.90;;;;;;5025881;28;20677;-77
2021/05/15 04:11:46;;;;;;;12.73;11.43;;;9.30;99.90;;;;;;5019206;28;20211;-78
2021/05/15 04:14:26;;;;;;;15.10;12.07;;;9.40;99.90;;;;;;5050112;23;20600;-37
2021/05/15 04:17:15;;;;;;;13.32;11.98;;;9.60;99.90;;;;;;5049660;28;20211;-37
2021/05/15 04:19:42;;;;;;;13.27;11.88;;;9.60;99.90;;;;;;5049456;28;20754;-37
2021/05/15 04:22:09;;;;;;;13.45;12.15;;;9.60;99.90;;;;;;5042622;28;20215;-38
2021/05/15 04:24:36;;;;;;;13.27;11.95;;;9.40;99.90;;;;;;5047916;28;20227;-36
2021/05/15 04:27:04;;;;;;;14.93;13.43;;;9.20;99.90;;;;;;5049596;28;20199;-38
2021/05/15 04:29:33;;;;;;;16.33;14.38;;;9.20;99.90;;;;;;5054863;23;20237;-41
2021/05/15 04:32:00;;;;;;;15.65;14.02;;;9.20;99.90;;;;;;5029251;28;20204;-39
2021/05/15 04:34:31;;;;;;;15.13;13.73;;;9.30;99.90;;;;;;5029553;28;20199;-39
2021/05/15 04:36:59;;;;;;;16.00;14.48;;;9.20;99.90;;;;;;5031758;28;20203;-40
2021/05/15 04:39:26;;;;;;;15.93;14.38;;;9.00;99.90;;;;;;5008401;28;20304;-39
2021/05/15 04:41:52;;;;;;;16.98;14.88;;;9.00;99.90;;;;;;5010474;28;20227;-40
2021/05/15 04:44:19;;;;;;;18.25;16.48;;;9.20;99.90;;;;;;5013418;28;20193;-40
2021/05/15 04:46:47;;;;;;;17.88;16.20;;;9.20;99.90;;;;;;5013808;28;20208;-40
2021/05/15 04:49:14;;;;;;;16.50;15.00;;;9.30;99.90;;;;;;5013275;28;20650;-40
2021/05/15 04:51:41;;;;;;;16.48;14.88;;;9.50;99.90;;;;;;5012918;28;20373;-40
2021/05/15 04:54:08;;;;;;;18.25;16.45;;;9.50;99.90;;;;;;5013371;28;20212;-39
2021/05/15 04:56:36;;;;;;;18.08;16.35;;;9.60;99.90;;;;;;5013603;28;20726;-40
2021/05/15 04:59:03;;;;;;;19.17;17.23;;;9.70;99.90;;;;;;5011494;28;20217;-40
2021/05/15 05:01:30;;;;;;;18.67;16.90;;;9.80;99.90;;;;;;5012752;28;20204;-40
2021/05/15 05:04:01;;;;;;;20.08;18.13;;;9.90;99.90;;;;;;5013334;28;20283;-39
2021/05/15 05:06:27;;;;;;;22.15;17.38;;;9.90;99.90;;;;;;5004569;28;20283;-40
2021/05/15 05:08:54;;;;;;;17.95;16.25;;;9.90;99.90;;;;;;5012642;28;20217;-40
2021/05/15 05:11:20;;;;;;;19.33;17.65;;;10.00;99.90;;;;;;5012587;28;20192;-40
2021/05/15 05:13:47;;;;;;;19.83;17.75;;;10.10;99.90;;;;;;5013041;28;20272;-39
2021/05/15 05:16:14;;;;;;;21.52;19.38;;;10.20;99.90;;;;;;5011803;28;20193;-38
2021/05/15 05:18:41;;;;;;;18.23;16.60;;;10.60;99.90;;;;;;5005254;28;20207;-38
2021/05/15 05:21:08;;;;;;;17.15;15.55;;;10.70;99.90;;;;;;5002739;28;20272;-37
2021/05/15 05:23:35;;;;;;;18.58;16.83;;;10.80;99.90;;;;;;5007726;28;20201;-38
2021/05/15 05:26:02;;;;;;;18.33;16.60;;;11.00;99.90;;;;;;5013314;28;20216;-38
2021/05/15 05:28:34;;;;;;;18.98;17.27;;;11.30;99.90;;;;;;5012755;28;20196;-39
2021/05/15 05:31:03;;;;;;;19.90;18.05;;;11.60;99.90;;;;;;5006429;28;20455;-38
2021/05/15 05:33:31;;;;;;;16.65;15.23;;;11.30;99.90;;;;;;5005892;28;20264;-38
2021/05/15 05:35:57;;;;;;;20.63;18.58;;;11.30;99.90;;;;;;5013229;28;20188;-40
2021/05/15 05:38:25;;;;;;;17.42;15.95;;;11.20;99.90;;;;;;5012947;28;20201;-39
2021/05/15 05:40:52;;;;;;;18.15;16.45;;;11.00;99.90;;;;;;5012296;28;20221;-39
2021/05/15 05:43:19;;;;;;;16.77;15.05;;;11.10;99.90;;;;;;5012126;28;20201;-39
2021/05/15 05:45:45;;;;;;;16.80;15.40;;;11.30;99.90;;;;;;5011158;28;20690;-40
2021/05/15 05:48:12;;;;;;;19.08;17.38;;;11.30;99.90;;;;;;5011721;28;20197;-38
2021/05/15 05:50:39;;;;;;;18.73;17.02;;;11.50;99.90;;;;;;5011840;28;20224;-37
2021/05/15 05:53:05;;;;;;;17.65;15.95;;;11.70;99.90;;;;;;5012183;28;20189;-38
2021/05/15 05:55:33;;;;;;;19.02;17.23;;;11.70;99.90;;;;;;5004693;28;20197;-39
2021/05/15 05:57:59;;;;;;;19.02;17.30;;;11.60;99.90;;;;;;5010977;28;20200;-38
2021/05/15 06:00:26;;;;;;;17.50;15.90;;;11.70;99.90;;;;;;5011254;28;20793;-38
2021/05/15 06:02:53;;;;;;;16.52;14.93;;;12.00;99.90;;;;;;5011812;28;20251;-39
2021/05/15 06:05:20;;;;;;;16.33;14.80;;;11.90;99.90;;;;;;5011994;28;20224;-39
2021/05/15 06:07:47;;;;;;;19.75;17.85;;;11.70;99.90;;;;;;5011876;28;20675;-38
2021/05/15 06:10:14;;;;;;;16.08;14.57;;;11.70;99.90;;;;;;5011321;28;20213;-37
2021/05/15 06:12:41;;;;;;;18.33;16.55;;;11.80;99.90;;;;;;5011690;28;20208;-38
2021/05/15 06:15:09;;;;;;;18.63;16.90;;;11.80;99.90;;;;;;5011841;28;20749;-39
2021/05/15 06:17:37;;;;;;;18.00;16.40;;;11.80;99.90;;;;;;5011615;28;20193;-38
2021/05/15 06:20:05;;;;;;;17.83;16.15;;;11.90;99.90;;;;;;5011529;28;20690;-40
2021/05/15 06:22:31;;;;;;;16.90;15.32;;;12.00;99.90;;;;;;5011262;28;20670;-39
2021/05/15 06:24:58;;;;;;;18.65;17.05;;;11.90;99.90;;;;;;5008444;28;20217;-38
2021/05/15 06:27:25;;;;;;;17.17;15.68;;;12.00;99.90;;;;;;5011677;28;20640;-39
2021/05/15 06:29:54;;;;;;;17.88;16.27;;;12.10;99.90;;;;;;5011141;28;20255;-38
2021/05/15 06:32:20;;;;;;;16.10;14.65;;;12.00;99.90;;;;;;5011318;28;20615;-38
2021/05/15 06:34:47;;;;;;;17.40;15.82;;;12.20;99.90;;;;;;5009804;28;20228;-38
2021/05/15 06:37:14;;;;;;;16.77;15.30;;;12.30;99.90;;;;;;5011829;28;20200;-38
2021/05/15 06:39:41;;;;;;;16.45;14.80;;;12.30;99.90;;;;;;5008145;28;20212;-38
2021/05/15 06:42:07;;;;;;;17.58;15.98;;;12.20;99.90;;;;;;5004905;28;20284;-39
2021/05/15 06:44:34;;;;;;;18.13;16.48;;;12.20;99.90;;;;;;5011858;28;20203;-39
2021/05/15 06:47:02;;;;;;;29.65;26.60;;;12.30;99.90;;;;;;5010949;28;20204;-39
2021/05/15 06:49:28;;;;;;;15.23;13.93;;;12.70;99.90;;;;;;5010762;28;20231;-40
2021/05/15 06:51:55;;;;;;;12.95;11.75;;;13.00;99.90;;;;;;5010965;28;20682;-39
2021/05/15 06:54:23;;;;;;;14.48;12.93;;;13.10;99.90;;;;;;5011233;28;20200;-39
2021/05/15 06:56:50;;;;;;;13.20;12.07;;;13.10;99.90;;;;;;5010906;28;20670;-39
2021/05/15 06:59:17;;;;;;;13.57;12.30;;;13.30;99.90;;;;;;5009646;28;20252;-38
2021/05/15 07:01:44;;;;;;;12.60;10.20;;;13.40;99.90;;;;;;5007827;28;20201;-38
2021/05/15 07:04:11;;;;;;;10.40;9.60;;;13.60;99.90;;;;;;5007679;28;20224;-38
2021/05/15 07:06:38;;;;;;;11.40;10.48;;;13.50;99.90;;;;;;5011104;28;20724;-39
2021/05/15 07:09:05;;;;;;;11.23;10.32;;;13.20;99.90;;;;;;5010721;28;20737;-39
2021/05/15 07:11:31;;;;;;;11.48;10.48;;;13.30;99.90;;;;;;5010346;28;20229;-39
2021/05/15 07:13:58;;;;;;;11.27;10.27;;;13.10;99.90;;;;;;5008792;28;20729;-40
2021/05/15 07:16:25;;;;;;;8.32;7.53;;;13.00;99.90;;;;;;5011072;28;20255;-39
2021/05/15 07:18:52;;;;;;;8.45;7.75;;;13.10;99.90;;;;;;5010356;28;20564;-40
2021/05/15 07:21:20;;;;;;;8.43;7.72;;;13.50;99.90;;;;;;4991191;28;20205;-40
2021/05/15 07:23:46;;;;;;;8.20;7.40;;;13.60;99.90;;;;;;5010074;28;20276;-38
2021/05/15 07:26:13;;;;;;;9.02;8.13;;;13.40;99.90;;;;;;5010928;28;20224;-41
2021/05/15 07:28:40;;;;;;;8.15;7.50;;;13.60;99.90;;;;;;5008425;28;20208;-39
2021/05/15 07:31:07;;;;;;;10.35;7.93;;;13.80;99.90;;;;;;5007226;28;20288;-39
2021/05/15 07:33:34;;;;;;;7.57;6.97;;;14.20;99.90;;;;;;5010601;28;20219;-40
2021/05/15 07:36:00;;;;;;;9.55;8.75;;;14.60;99.90;;;;;;5010441;28;20188;-39
2021/05/15 07:38:28;;;;;;;8.43;7.10;;;15.00;99.90;;;;;;5010560;28;20258;-39
2021/05/15 07:40:55;;;;;;;8.80;7.35;;;14.80;99.90;;;;;;5010627;28;20288;-39
2021/05/15 07:43:23;;;;;;;7.82;7.13;;;14.50;99.90;;;;;;5010972;28;20697;-39
2021/05/15 07:45:50;;;;;;;7.68;7.07;;;14.80;99.90;;;;;;5006345;28;20279;-39
2021/05/15 07:48:16;;;;;;;7.13;6.53;;;14.50;99.90;;;;;;5009932;28;20277;-41
2021/05/15 07:50:43;;;;;;;6.47;5.88;;;14.50;99.90;;;;;;4998147;28;20240;-39
2021/05/15 07:53:10;;;;;;;5.72;5.22;;;14.40;99.90;;;;;;4994837;28;20264;-39
2021/05/15 07:55:37;;;;;;;5.18;4.70;;;14.50;99.90;;;;;;4999321;28;20197;-39
2021/05/15 07:58:04;;;;;;;6.55;5.50;;;15.00;99.90;;;;;;5005684;28;20207;-39
2021/05/15 08:00:31;;;;;;;6.50;4.78;;;15.20;99.90;;;;;;5000261;28;20816;-39
2021/05/15 08:02:57;;;;;;;5.18;4.72;;;15.30;99.90;;;;;;5000382;28;20213;-39
2021/05/15 08:05:24;;;;;;;6.07;4.60;;;15.10;99.90;;;;;;5000750;28;20710;-38
2021/05/15 08:07:51;;;;;;;3.97;3.67;;;15.10;99.90;;;;;;5010471;28;20235;-40
2021/05/15 08:10:18;;;;;;;3.95;3.60;;;15.10;99.90;;;;;;5004871;28;20212;-39
2021/05/15 08:12:45;;;;;;;3.67;3.47;;;15.20;99.90;;;;;;5007837;28;20212;-38
2021/05/15 08:15:12;;;;;;;3.58;3.22;;;15.60;99.90;;;;;;4994703;28;20272;-39
2021/05/15 08:17:39;;;;;;;4.65;3.53;;;15.70;99.90;;;;;;4995048;28;20335;-39
2021/05/15 08:20:07;;;;;;;3.90;3.60;;;15.60;99.90;;;;;;4999974;28;20238;-39
2021/05/15 08:22:33;;;;;;;4.82;3.75;;;16.00;99.90;;;;;;5002250;28;20739;-39
2021/05/15 08:25:00;;;;;;;3.92;3.63;;;16.10;99.90;;;;;;4996446;28;20221;-38
2021/05/15 08:27:27;;;;;;;3.50;3.20;;;15.90;99.90;;;;;;5000420;28;20280;-39
2021/05/15 08:29:54;;;;;;;5.72;5.22;;;16.10;99.90;;;;;;5011489;28;20807;-39
2021/05/15 08:32:21;;;;;;;3.08;2.78;;;16.30;99.90;;;;;;5011174;28;20650;-40
2021/05/15 08:34:48;;;;;;;3.28;2.20;;;16.30;99.90;;;;;;5011951;28;20612;-39
2021/05/15 08:37:15;;;;;;;1.85;1.75;;;16.10;99.90;;;;;;5009149;28;20255;-40
2021/05/15 08:39:41;;;;;;;2.22;2.13;;;16.00;99.90;;;;;;5010809;28;20769;-40
2021/05/15 08:42:09;;;;;;;3.28;2.30;;;15.90;99.90;;;;;;5006266;28;20231;-39
2021/05/15 08:44:49;;;;;;;2.45;2.10;;;16.30;99.90;;;;;;5128741;27;20572;-39
2021/05/15 08:47:18;;;;;;;2.92;2.35;;;16.40;99.90;;;;;;5128128;28;20193;-38
2021/05/15 08:49:46;;;;;;;2.92;1.88;;;16.40;99.90;;;;;;5119429;27;20241;-38
2021/05/15 08:52:14;;;;;;;2.90;1.88;;;16.10;99.90;;;;;;5102895;28;20189;-39
2021/05/15 08:54:40;;;;;;;3.40;2.00;;;15.80;99.90;;;;;;5119143;22;20194;-37
2021/05/15 08:57:08;;;;;;;2.03;1.92;;;15.70;99.90;;;;;;5028632;28;20635;-39
2021/05/15 08:59:34;;;;;;;2.03;1.83;;;16.00;99.90;;;;;;5026957;28;20204;-37
2021/05/15 09:02:02;;;;;;;4.20;2.50;;;16.10;99.90;;;;;;5040425;28;20258;-37
2021/05/15 09:04:29;;;;;;;1.67;1.27;;;16.20;99.90;;;;;;5038134;28;20315;-37
2021/05/15 09:06:55;;;;;;;1.23;1.08;;;16.20;99.90;;;;;;5043826;28;20669;-37
2021/05/15 09:09:22;;;;;;;1.60;1.50;;;15.90;99.90;;;;;;5027832;28;20196;-36
2021/05/15 09:11:50;;;;;;;1.60;1.50;;;15.90;99.90;;;;;;5032947;28;20382;-37
2021/05/15 09:14:18;;;;;;;3.08;1.30;;;15.50;99.90;;;;;;5038218;28;20200;-39
2021/05/15 09:16:50;;;;;;;1.80;1.50;;;15.30;99.90;;;;;;5043775;28;20640;-37
2021/05/15 09:19:21;;;;;;;2.28;1.13;;;15.10;99.90;;;;;;5028275;28;20724;-37
2021/05/15 09:21:57;;;;;;;2.60;1.80;;;14.80;99.90;;;;;;5028952;28;20291;-39
2021/05/15 09:24:32;;;;;;;1.80;1.45;;;14.90;99.90;;;;;;5041622;28;20251;-36
2021/05/15 09:27:00;;;;;;;2.70;1.35;;;14.70;99.90;;;;;;5031418;28;20784;-38
2021/05/15 09:29:27;;;;;;;2.53;1.60;;;14.60;99.90;;;;;;5044411;28;20287;-37
2021/05/15 09:31:54;;;;;;;1.40;1.30;;;14.60;99.90;;;;;;5031043;28;20262;-37
2021/05/15 09:34:22;;;;;;;5.15;1.58;;;14.70;99.90;;;;;;5028503;28;20184;-37
2021/05/15 09:36:53;;;;;;;1.27;1.17;;;14.80;99.90;;;;;;5041422;28;20538;-38
2021/05/15 09:39:22;;;;;;;2.90;1.70;;;15.00;99.90;;;;;;5029235;28;20569;-39
2021/05/15 09:41:51;;;;;;;2.53;1.73;;;15.20;99.90;;;;;;5034146;28;20196;-37
2021/05/15 09:44:20;;;;;;;2.55;1.17;;;15.10;99.90;;;;;;5026053;28;20581;-37
2021/05/15 09:46:48;;;;;;;1.90;1.27;;;15.10;99.90;;;;;;5025876;28;20675;-37
2021/05/15 09:49:17;;;;;;;2.35;1.40;;;15.50;99.90;;;;;;5018039;28;20232;-38
2021/05/15 09:51:51;;;;;;;3.58;1.73;;;16.00;99.90;;;;;;5016269;28;20207;-38
2021/05/15 09:54:20;;;;;;;1.60;1.40;;;16.90;99.90;;;;;;5041251;28;20223;-37
2021/05/15 09:56:58;;;;;;;1.38;1.27;;;17.50;99.90;;;;;;5016523;28;20326;-37
2021/05/15 09:59:27;;;;;;;3.15;1.50;;;17.70;99.90;;;;;;5022657;28;20462;-37
2021/05/15 10:01:57;;;;;;;1.50;1.30;;;17.70;99.90;;;;;;5026476;28;20204;-37
2021/05/15 10:04:45;;;;;;;0.93;0.93;;;17.70;99.90;;;;;;5018003;28;20578;-38
2021/05/15 10:07:18;;;;;;;0.75;0.75;;;17.70;99.90;;;;;;5019432;28;20191;-38
2021/05/15 10:09:45;;;;;;;1.52;1.40;;;17.70;99.90;;;;;;5030810;28;20195;-38
2021/05/15 10:12:12;;;;;;;1.60;1.05;;;17.60;99.90;;;;;;5021103;28;20605;-38
2021/05/15 10:14:39;;;;;;;2.20;0.98;;;17.40;99.90;;;;;;5013568;28;20224;-38
2021/05/15 10:17:06;;;;;;;2.70;0.90;;;16.50;99.90;;;;;;5016219;28;20211;-37
2021/05/15 10:19:33;;;;;;;1.17;1.08;;;16.20;99.90;;;;;;5018680;28;20314;-38
2021/05/15 10:22:00;;;;;;;1.50;1.08;;;16.10;99.90;;;;;;5021153;28;20197;-39
2021/05/15 10:24:29;;;;;;;1.05;1.00;;;15.40;99.90;;;;;;5031155;28;20219;-39
2021/05/15 10:26:59;;;;;;;1.15;1.08;;;15.80;99.90;;;;;;5017528;28;20204;-39
2021/05/15 10:29:39;;;;;;;0.60;0.60;;;16.50;99.90;;;;;;5013722;28;20189;-38
2021/05/15 10:32:09;;;;;;;3.72;1.05;;;16.90;99.90;;;;;;5012875;28;20350;-38
2021/05/15 10:34:36;;;;;;;2.38;0.73;;;16.90;99.90;;;;;;5020191;28;20271;-38
2021/05/15 10:37:03;;;;;;;0.60;0.60;;;17.40;99.90;;;;;;5029554;28;20204;-37
2021/05/15 10:39:33;;;;;;;0.65;0.65;;;17.60;99.90;;;;;;5018353;28;20700;-37
2021/05/15 10:42:01;;;;;;;0.70;0.70;;;18.10;99.90;;;;;;5015799;28;20561;-38
2021/05/15 10:44:39;;;;;;;0.70;0.70;;;18.70;99.90;;;;;;5025864;28;20212;-39
2021/05/15 10:47:06;;;;;;;0.70;0.70;;;18.70;99.90;;;;;;5030719;28;20253;-39
2021/05/15 10:49:33;;;;;;;4.07;1.58;;;18.40;99.90;;;;;;5028940;28;20220;-38
2021/05/15 10:52:08;;;;;;;1.42;1.10;;;16.90;99.90;;;;;;5022379;28;20605;-37
2021/05/15 10:54:38;;;;;;;1.00;0.90;;;16.00;99.90;;;;;;5012897;28;20193;-38
2021/05/15 10:57:06;;;;;;;2.25;1.00;;;15.80;99.90;;;;;;5012881;28;20279;-38
2021/05/15 10:59:35;;;;;;;4.38;1.13;;;15.50;99.90;;;;;;5026202;28;20258;-38
2021/05/15 11:02:07;;;;;;;0.88;0.70;;;15.50;99.90;;;;;;5021074;28;20196;-38
2021/05/15 11:04:49;;;;;;;0.93;0.93;;;15.50;99.90;;;;;;5016656;28;20224;-37
2021/05/15 11:07:19;;;;;;;0.95;0.70;;;15.60;99.90;;;;;;5011760;28;20197;-39
2021/05/15 11:09:54;;;;;;;2.60;1.05;;;15.90;99.90;;;;;;5017481;28;20197;-37
2021/05/15 11:12:23;;;;;;;0.80;0.80;;;15.70;99.90;;;;;;5028057;28;20219;-37
2021/05/15 11:14:51;;;;;;;4.35;1.08;;;15.10;99.90;;;;;;5022127;28;20215;-39
2021/05/15 11:17:25;;;;;;;1.75;0.63;;;14.10;99.90;;;;;;5017934;28;20718;-39
2021/05/15 11:19:57;;;;;;;2.95;0.70;;;14.00;99.90;;;;;;5023366;28;20304;-38
2021/05/15 11:22:39;;;;;;;0.50;0.50;;;14.40;99.90;;;;;;5011657;28;20232;-38
2021/05/15 11:25:19;;;;;;;1.10;0.85;;;15.00;99.90;;;;;;5020149;28;20786;-38
2021/05/15 11:27:47;;;;;;;0.75;0.63;;;15.30;99.90;;;;;;5023788;28;20200;-37
2021/05/15 11:30:19;;;;;;;0.65;0.60;;;15.30;99.90;;;;;;5010718;28;20227;-37
2021/05/15 11:33:03;;;;;;;0.57;0.57;;;15.10;99.90;;;;;;5020100;28;20199;-37
2021/05/15 11:35:31;;;;;;;0.77;0.77;;;15.00;99.90;;;;;;5016439;28;20216;-39
2021/05/15 11:38:05;;;;;;;0.70;0.70;;;15.20;99.90;;;;;;5021299;28;20196;-37
2021/05/15 11:40:34;;;;;;;1.75;0.70;;;15.30;99.90;;;;;;5027464;28;20269;-37
2021/05/15 11:43:01;;;;;;;5.60;2.75;;;15.00;99.90;;;;;;5022413;28;20213;-37
2021/05/15 11:45:31;;;;;;;1.98;0.73;;;14.80;99.90;;;;;;5011302;28;20244;-37
2021/05/15 11:48:10;;;;;;;1.70;1.00;;;14.30;99.90;;;;;;5011263;28;20582;-38
2021/05/15 11:50:37;;;;;;;3.20;1.70;;;13.90;99.90;;;;;;5011374;28;20708;-36
2021/05/15 11:53:04;;;;;;;2.70;1.60;;;13.50;99.90;;;;;;5012049;28;20192;-36
2021/05/15 11:55:33;;;;;;;2.17;1.23;;;13.30;99.90;;;;;;5011304;28;20235;-37
2021/05/15 11:58:01;;;;;;;2.45;2.00;;;12.90;99.90;;;;;;5011398;28;20287;-36
2021/05/15 12:00:29;;;;;;;2.65;1.50;;;13.10;99.90;;;;;;5009641;28;20744;-36
2021/05/15 12:02:56;;;;;;;2.00;1.48;;;13.30;99.90;;;;;;5011420;28;20201;-38
2021/05/15 12:05:23;;;;;;;2.03;1.08;;;13.60;99.90;;;;;;5011121;28;20296;-38
2021/05/15 12:07:51;;;;;;;3.45;2.75;;;13.90;99.90;;;;;;5019261;28;20665;-37
2021/05/15 12:10:20;;;;;;;1.63;1.52;;;13.80;99.90;;;;;;5030584;28;20215;-36
2021/05/15 12:12:55;;;;;;;4.55;1.65;;;13.70;99.90;;;;;;5031177;28;20223;-40
2021/05/15 12:15:23;;;;;;;1.50;1.40;;;13.70;99.90;;;;;;5030719;28;21467;-36
2021/05/15 12:17:50;;;;;;;1.25;1.15;;;13.90;99.90;;;;;;5030515;28;20208;-37
2021/05/15 12:20:32;;;;;;;0.80;0.80;;;14.10;99.90;;;;;;5030404;28;20200;-39
2021/05/15 12:23:11;;;;;;;1.45;0.68;;;13.80;99.90;;;;;;5031028;28;20215;-37
2021/05/15 12:25:38;;;;;;;1.52;0.95;;;13.40;99.90;;;;;;5017390;28;20254;-39
2021/05/15 12:28:20;;;;;;;0.80;0.80;;;13.00;99.90;;;;;;5011192;28;20207;-37
2021/05/15 12:30:47;;;;;;;1.27;1.00;;;13.00;99.90;;;;;;5020751;28;20654;-37
2021/05/15 12:33:29;;;;;;;2.10;0.98;;;13.30;99.90;;;;;;5012288;28;20240;-36
2021/05/15 12:35:59;;;;;;;0.70;0.70;;;13.80;99.90;;;;;;5028101;28;20227;-37
2021/05/15 12:38:26;;;;;;;0.80;0.80;;;13.80;99.90;;;;;;5028629;28;20287;-38
2021/05/15 12:40:52;;;;;;;0.93;0.93;;;13.90;99.90;;;;;;5012799;28;20201;-37
2021/05/15 12:43:24;;;;;;;0.80;0.80;;;13.80;99.90;;;;;;5023812;28;20240;-37
2021/05/15 12:45:55;;;;;;;1.77;1.17;;;13.80;99.90;;;;;;5027877;28;20243;-37
2021/05/15 12:48:35;;;;;;;0.70;0.70;;;13.70;99.90;;;;;;5028309;28;20635;-37